createdAt,value
2017-04-29T00:02:13.572Z,79.50
2017-04-29T00:04:41.127Z,80.70
2017-04-29T00:07:08.647Z,81.70
2017-04-29T00:09:35.467Z,81.10
2017-04-29T00:12:02.251Z,81.40
2017-04-29T00:14:29.088Z,81.10
2017-04-29T00:16:55.916Z,81.80
2017-04-29T00:19:22.716Z,80.70
2017-04-29T00:21:49.540Z,81.00
2017-04-29T00:24:17.096Z,81.30
2017-04-29T00:26:43.915Z,81.90
2017-04-29T00:29:11.470Z,81.70
2017-04-29T00:31:38.299Z,82.40
2017-04-29T00:34:05.084Z,83.00
2017-04-29T00:36:31.926Z,83.20
2017-04-29T00:38:58.704Z,83.20
2017-04-29T00:41:25.541Z,83.10
2017-04-29T00:43:52.330Z,81.80
2017-04-29T00:46:19.846Z,82.00
2017-04-29T00:48:46.719Z,82.70
2017-04-29T00:51:13.509Z,82.80
2017-04-29T00:53:40.292Z,83.10
2017-04-29T00:56:07.118Z,82.60
2017-04-29T00:58:33.895Z,82.70
2017-04-29T01:01:01.419Z,83.10
2017-04-29T01:03:28.276Z,83.70
2017-04-29T01:05:55.837Z,83.70
2017-04-29T01:08:22.685Z,82.70
2017-04-29T01:10:49.472Z,83.50
2017-04-29T01:13:17.019Z,83.00
2017-04-29T01:15:44.543Z,82.30
2017-04-29T01:18:11.372Z,82.20
2017-04-29T01:20:38.152Z,83.50
2017-04-29T01:23:04.927Z,84.40
2017-04-29T01:25:31.741Z,83.50
2017-04-29T01:27:58.543Z,83.20
2017-04-29T01:30:25.391Z,82.70
2017-04-29T01:32:52.176Z,83.20
2017-04-29T01:35:18.999Z,84.90
2017-04-29T01:37:45.775Z,83.60
2017-04-29T01:40:12.561Z,83.60
2017-04-29T01:42:43.362Z,83.70
2017-04-29T01:45:10.924Z,83.60
2017-04-29T01:47:37.731Z,83.90
2017-04-29T01:50:05.361Z,85.30
2017-04-29T01:52:32.143Z,84.00
2017-04-29T01:54:58.976Z,85.20
2017-04-29T01:57:25.811Z,84.30
2017-04-29T01:59:52.597Z,84.40
2017-04-29T02:02:20.159Z,84.80
2017-04-29T02:04:46.932Z,85.20
2017-04-29T02:07:13.747Z,85.30
2017-04-29T02:09:40.531Z,86.00
2017-04-29T02:12:07.309Z,84.50
2017-04-29T02:14:34.144Z,84.00
2017-04-29T02:17:00.931Z,84.60
2017-04-29T02:19:27.754Z,85.20
2017-04-29T02:21:54.547Z,85.60
2017-04-29T02:24:22.124Z,86.60
2017-04-29T02:26:48.919Z,85.10
2017-04-29T02:29:15.735Z,86.20
2017-04-29T02:31:42.564Z,86.40
2017-04-29T02:34:09.338Z,85.20
2017-04-29T02:36:36.146Z,85.90
2017-04-29T02:39:03.711Z,87.20
2017-04-29T02:41:30.501Z,85.70
2017-04-29T02:43:58.039Z,86.40
2017-04-29T02:46:24.919Z,85.40
2017-04-29T02:48:51.744Z,86.90
2017-04-29T02:51:18.528Z,86.20
2017-04-29T02:53:45.355Z,87.00
2017-04-29T02:56:12.139Z,85.50
2017-04-29T02:58:38.991Z,86.90
2017-04-29T03:01:05.771Z,87.10
2017-04-29T03:03:32.611Z,85.60
2017-04-29T03:05:59.439Z,86.70
2017-04-29T03:08:26.231Z,86.10
2017-04-29T03:10:53.098Z,86.20
2017-04-29T03:13:19.883Z,86.40
2017-04-29T03:15:46.704Z,85.60
2017-04-29T03:18:13.491Z,85.70
2017-04-29T03:20:40.336Z,86.70
2017-04-29T03:23:07.122Z,86.80
2017-04-29T03:25:33.942Z,86.20
2017-04-29T03:28:00.771Z,85.70
2017-04-29T03:30:27.568Z,85.70
2017-04-29T03:32:54.428Z,85.30
2017-04-29T03:35:21.270Z,86.10
2017-04-29T03:37:48.046Z,86.40
2017-04-29T03:40:14.883Z,85.90
2017-04-29T03:42:41.668Z,85.80
2017-04-29T03:45:08.443Z,85.90
2017-04-29T03:47:36.043Z,85.70
2017-04-29T03:50:02.838Z,86.80
2017-04-29T03:52:29.687Z,85.30
2017-04-29T03:54:56.479Z,85.70
2017-04-29T03:57:24.063Z,85.00
2017-04-29T03:59:50.869Z,85.00
2017-04-29T04:02:17.707Z,86.50
2017-04-29T04:04:44.531Z,87.40
2017-04-29T04:07:11.347Z,85.90
2017-04-29T04:09:38.902Z,86.40
2017-04-29T04:12:05.676Z,86.40
2017-04-29T04:14:32.504Z,86.20
2017-04-29T04:16:59.295Z,87.40
2017-04-29T04:19:26.097Z,87.70
2017-04-29T04:21:53.662Z,86.80
2017-04-29T04:24:20.442Z,87.20
2017-04-29T04:26:47.272Z,86.70
2017-04-29T04:29:14.052Z,87.30
2017-04-29T04:31:40.876Z,86.70
2017-04-29T04:34:07.666Z,87.00
2017-04-29T04:36:35.234Z,87.60
2017-04-29T04:39:02.008Z,87.20
2017-04-29T04:41:28.898Z,87.00
2017-04-29T04:43:55.707Z,87.40
2017-04-29T04:46:23.251Z,87.50
2017-04-29T04:48:50.855Z,87.00
2017-04-29T04:51:17.639Z,87.10
2017-04-29T04:53:44.459Z,86.90
2017-04-29T04:56:12.087Z,86.00
2017-04-29T04:58:38.908Z,86.20
2017-04-29T05:01:05.732Z,86.00
2017-04-29T05:03:32.547Z,85.20
2017-04-29T05:05:59.398Z,84.60
2017-04-29T05:08:26.240Z,84.80
2017-04-29T05:10:54.035Z,85.50
2017-04-29T05:13:20.816Z,85.20
2017-04-29T05:15:48.401Z,85.20
2017-04-29T05:18:15.187Z,84.50
2017-04-29T05:20:42.006Z,84.00
2017-04-29T05:23:08.794Z,84.40
2017-04-29T05:25:35.639Z,84.30
2017-04-29T05:28:02.422Z,84.40
2017-04-29T05:30:29.287Z,84.60
2017-04-29T05:32:56.095Z,84.80
2017-04-29T05:35:22.930Z,85.30
2017-04-29T05:37:49.743Z,85.00
2017-04-29T05:40:16.554Z,84.60
2017-04-29T05:42:43.340Z,84.70
2017-04-29T05:45:10.182Z,84.80
2017-04-29T05:47:36.960Z,85.90
2017-04-29T05:50:03.819Z,84.80
2017-04-29T05:52:30.643Z,84.80
2017-04-29T05:54:57.491Z,84.00
2017-04-29T05:57:24.309Z,84.00
2017-04-29T05:59:51.129Z,84.20
2017-04-29T06:02:17.911Z,84.20
2017-04-29T06:04:44.748Z,86.30
2017-04-29T06:07:11.540Z,84.40
2017-04-29T06:09:39.103Z,83.90
2017-04-29T06:12:05.888Z,83.10
2017-04-29T06:14:32.722Z,83.40
2017-04-29T06:16:59.499Z,84.10
2017-04-29T06:19:26.349Z,83.70
2017-04-29T06:21:53.164Z,82.90
2017-04-29T06:24:19.948Z,82.20
2017-04-29T06:26:47.507Z,82.20
2017-04-29T06:29:15.058Z,82.50
2017-04-29T06:31:42.612Z,82.40
2017-04-29T06:34:09.431Z,78.90
2017-04-29T06:36:36.260Z,76.70
2017-04-29T06:39:03.081Z,76.80
2017-04-29T06:41:29.884Z,77.70
2017-04-29T06:43:56.711Z,75.30
2017-04-29T06:46:23.506Z,75.00
2017-04-29T06:48:50.375Z,73.80
2017-04-29T06:51:17.158Z,73.50
2017-04-29T06:53:43.991Z,74.10
2017-04-29T06:56:10.783Z,74.40
2017-04-29T06:58:37.678Z,73.50
2017-04-29T07:01:04.463Z,72.80
2017-04-29T07:03:31.243Z,72.50
2017-04-29T07:05:58.848Z,72.40
2017-04-29T07:08:25.647Z,73.00
2017-04-29T07:10:52.440Z,72.50
2017-04-29T07:13:19.290Z,72.10
2017-04-29T07:15:46.814Z,71.70
2017-04-29T07:18:13.595Z,70.90
2017-04-29T07:20:40.422Z,71.50
2017-04-29T07:23:07.242Z,71.50
2017-04-29T07:25:34.056Z,73.40
2017-04-29T07:28:00.878Z,75.40
2017-04-29T07:30:27.728Z,77.30
2017-04-29T07:32:54.523Z,81.20
2017-04-29T07:35:22.105Z,85.70
2017-04-29T07:37:48.888Z,87.90
2017-04-29T07:40:16.398Z,90.40
2017-04-29T07:42:43.257Z,90.30
2017-04-29T07:45:10.042Z,90.80
2017-04-29T07:47:36.831Z,90.90
2017-04-29T07:50:03.664Z,91.50
2017-04-29T07:52:30.455Z,91.90
2017-04-29T07:54:57.355Z,91.90
2017-04-29T07:57:24.160Z,92.40
2017-04-29T07:59:50.954Z,92.40
2017-04-29T08:02:17.776Z,92.90
2017-04-29T08:04:45.303Z,93.40
2017-04-29T08:07:12.155Z,93.50
2017-04-29T08:09:39.675Z,93.30
2017-04-29T08:12:06.454Z,94.20
2017-04-29T08:14:33.278Z,93.80
2017-04-29T08:17:00.071Z,94.00
2017-04-29T08:19:26.910Z,93.10
2017-04-29T08:21:54.447Z,93.10
2017-04-29T08:24:21.239Z,93.20
2017-04-29T08:26:48.055Z,93.20
2017-04-29T08:29:14.851Z,91.30
2017-04-29T08:31:42.415Z,93.00
2017-04-29T08:34:09.264Z,93.00
2017-04-29T08:36:36.098Z,92.00
2017-04-29T08:39:02.915Z,91.90
2017-04-29T08:41:29.722Z,92.40
2017-04-29T08:43:56.581Z,90.50
2017-04-29T08:46:23.457Z,90.70
2017-04-29T08:48:51.027Z,91.00
2017-04-29T08:51:17.858Z,91.00
2017-04-29T08:53:44.630Z,89.60
2017-04-29T08:56:11.419Z,89.90
2017-04-29T08:58:38.243Z,87.60
2017-04-29T09:01:05.022Z,88.20
2017-04-29T09:03:31.836Z,88.20
2017-04-29T09:05:58.642Z,85.80
2017-04-29T09:08:25.522Z,85.90
2017-04-29T09:10:53.055Z,83.00
2017-04-29T09:13:19.836Z,84.50
2017-04-29T09:15:46.658Z,84.30
2017-04-29T09:18:13.495Z,81.30
2017-04-29T09:20:40.315Z,81.80
2017-04-29T09:23:07.108Z,79.60
2017-04-29T09:25:34.691Z,80.10
2017-04-29T09:28:01.575Z,82.40
2017-04-29T09:30:29.147Z,81.30
2017-04-29T09:32:55.959Z,84.80
2017-04-29T09:35:22.787Z,81.00
2017-04-29T09:37:50.319Z,79.80
2017-04-29T09:40:17.167Z,78.40
2017-04-29T09:42:44.700Z,78.00
2017-04-29T09:45:12.235Z,75.30
2017-04-29T09:47:39.050Z,80.10
2017-04-29T09:50:05.879Z,74.50
2017-04-29T09:52:32.691Z,69.90
2017-04-29T09:54:59.500Z,70.80
2017-04-29T09:57:26.361Z,70.40
2017-04-29T09:59:53.348Z,69.10
2017-04-29T10:02:20.176Z,66.00
2017-04-29T10:04:46.956Z,66.50
2017-04-29T10:07:13.771Z,63.10
2017-04-29T10:09:40.551Z,64.40
2017-04-29T10:12:07.438Z,64.20
2017-04-29T10:14:34.223Z,64.20
2017-04-29T10:17:01.001Z,64.60
2017-04-29T10:19:27.859Z,66.50
2017-04-29T10:21:54.670Z,67.20
2017-04-29T10:24:22.188Z,65.80
2017-04-29T10:26:49.011Z,62.20
2017-04-29T10:29:15.806Z,64.50
2017-04-29T10:31:42.627Z,65.80
2017-04-29T10:34:09.411Z,63.80
2017-04-29T10:36:36.199Z,64.60
2017-04-29T10:39:03.006Z,65.20
2017-04-29T10:41:29.819Z,65.80
2017-04-29T10:43:57.380Z,66.60
2017-04-29T10:46:24.262Z,63.70
2017-04-29T10:48:51.466Z,65.00
2017-04-29T10:51:18.317Z,64.40
2017-04-29T10:53:45.095Z,62.10
2017-04-29T10:56:11.918Z,63.40
2017-04-29T10:58:38.699Z,62.60
2017-04-29T11:01:05.511Z,59.00
2017-04-29T11:03:32.359Z,60.00
2017-04-29T11:05:59.159Z,59.80
2017-04-29T11:08:25.981Z,60.60
2017-04-29T11:10:52.846Z,60.70
2017-04-29T11:13:19.634Z,60.80
2017-04-29T11:15:46.415Z,61.30
2017-04-29T11:18:13.235Z,63.20
2017-04-29T11:20:40.016Z,61.00
2017-04-29T11:23:06.839Z,57.90
2017-04-29T11:25:33.631Z,56.00
2017-04-29T11:28:01.195Z,55.00
2017-04-29T11:30:28.011Z,54.20
2017-04-29T11:32:55.550Z,56.90
2017-04-29T11:35:23.134Z,61.40
2017-04-29T11:37:49.928Z,65.10
2017-04-29T11:40:17.491Z,67.60
2017-04-29T11:42:44.269Z,69.30
2017-04-29T11:45:11.087Z,71.80
2017-04-29T11:47:37.892Z,75.60
2017-04-29T11:50:04.863Z,79.30
2017-04-29T11:52:31.639Z,77.10
2017-04-29T11:54:58.479Z,80.40
2017-04-29T11:57:25.347Z,80.30
2017-04-29T11:59:52.180Z,79.10
2017-04-29T12:02:18.975Z,81.30
2017-04-29T12:04:45.763Z,80.40
2017-04-29T12:07:12.595Z,81.00
2017-04-29T12:09:39.377Z,80.80
2017-04-29T12:12:06.203Z,76.20
2017-04-29T12:14:33.031Z,75.40
2017-04-29T12:16:59.887Z,74.30
2017-04-29T12:19:27.438Z,74.30
2017-04-29T12:21:55.019Z,74.70
2017-04-29T12:24:21.861Z,75.40
2017-04-29T12:26:48.695Z,73.90
2017-04-29T12:29:15.475Z,73.30
2017-04-29T12:31:49.983Z,74.60
2017-04-29T12:34:17.554Z,71.70
2017-04-29T12:36:44.330Z,72.50
2017-04-29T12:39:11.124Z,70.10
2017-04-29T12:41:37.934Z,66.50
2017-04-29T12:44:04.712Z,67.20
2017-04-29T12:46:31.607Z,67.30
2017-04-29T12:48:58.438Z,66.00
2017-04-29T12:51:25.323Z,62.50
2017-04-29T12:53:52.862Z,62.90
2017-04-29T12:56:20.418Z,60.30
2017-04-29T12:58:47.940Z,60.80
2017-04-29T13:01:14.746Z,61.10
2017-04-29T13:03:41.515Z,60.90
2017-04-29T13:06:09.106Z,60.40
2017-04-29T13:08:35.878Z,59.10
2017-04-29T13:11:03.404Z,56.40
2017-04-29T13:13:30.252Z,51.80
2017-04-29T13:15:57.817Z,49.30
2017-04-29T13:18:24.674Z,50.20
2017-04-29T13:20:51.446Z,48.90
2017-04-29T13:23:19.344Z,49.50
2017-04-29T13:25:46.157Z,51.60
2017-04-29T13:28:12.963Z,48.70
2017-04-29T13:30:46.610Z,46.30
2017-04-29T13:33:13.431Z,44.80
2017-04-29T13:35:40.203Z,42.50
2017-04-29T13:38:07.783Z,42.70
2017-04-29T13:40:34.554Z,42.50
2017-04-29T13:43:01.359Z,44.50
2017-04-29T13:45:28.219Z,46.00
2017-04-29T13:47:55.859Z,45.90
2017-04-29T13:50:22.681Z,47.10
2017-04-29T13:52:49.467Z,46.80
2017-04-29T13:55:16.291Z,47.80
2017-04-29T13:57:43.079Z,49.40
2017-04-29T14:00:09.890Z,49.90
2017-04-29T14:02:36.787Z,51.10
2017-04-29T14:05:03.608Z,52.10
2017-04-29T14:07:30.391Z,52.20
2017-04-29T14:09:57.630Z,51.30
2017-04-29T14:12:25.226Z,52.00
2017-04-29T14:14:52.063Z,51.50
2017-04-29T14:17:18.845Z,50.70
2017-04-29T14:19:46.443Z,51.70
2017-04-29T14:22:13.273Z,51.80
2017-04-29T14:24:40.059Z,52.50
2017-04-29T14:27:06.837Z,52.60
2017-04-29T14:29:33.650Z,52.80
2017-04-29T14:32:00.451Z,53.50
2017-04-29T14:34:27.309Z,53.60
2017-04-29T14:36:54.108Z,54.60
2017-04-29T14:39:20.887Z,54.30
2017-04-29T14:41:47.704Z,55.10
2017-04-29T14:44:14.499Z,55.40
2017-04-29T14:46:41.323Z,55.20
2017-04-29T14:49:08.158Z,55.10
2017-04-29T14:51:34.971Z,54.80
2017-04-29T14:54:01.801Z,53.80
2017-04-29T14:56:28.582Z,53.50
2017-04-29T14:58:55.501Z,53.70
2017-04-29T15:01:22.328Z,54.20
2017-04-29T15:03:49.155Z,53.30
2017-04-29T15:06:16.018Z,52.80
2017-04-29T15:08:43.548Z,52.70
2017-04-29T15:11:10.326Z,51.30
2017-04-29T15:13:37.139Z,50.10
2017-04-29T15:16:03.916Z,50.30
2017-04-29T15:18:30.739Z,50.00
2017-04-29T15:20:57.531Z,50.30
2017-04-29T15:23:24.542Z,50.70
2017-04-29T15:25:51.414Z,50.70
2017-04-29T15:28:25.135Z,50.40
2017-04-29T15:30:51.947Z,49.50
2017-04-29T15:33:18.724Z,49.80
2017-04-29T15:35:45.539Z,49.60
2017-04-29T15:38:12.332Z,49.30
2017-04-29T15:40:39.179Z,49.10
2017-04-29T15:43:05.958Z,48.70
2017-04-29T15:45:32.731Z,46.60
2017-04-29T15:47:59.567Z,46.60
2017-04-29T15:50:27.171Z,46.00
2017-04-29T15:52:54.006Z,44.60
2017-04-29T15:55:20.782Z,45.60
2017-04-29T15:57:48.340Z,45.40
2017-04-29T16:00:15.127Z,45.80
2017-04-29T16:02:41.960Z,46.30
2017-04-29T16:05:08.743Z,46.60
2017-04-29T16:07:35.528Z,47.00
2017-04-29T16:10:03.089Z,46.00
2017-04-29T16:12:29.883Z,47.00
2017-04-29T16:14:56.676Z,47.00
2017-04-29T16:17:23.525Z,46.80
2017-04-29T16:19:50.324Z,46.80
2017-04-29T16:22:17.139Z,47.00
2017-04-29T16:24:43.924Z,47.20
2017-04-29T16:27:10.754Z,48.30
2017-04-29T16:29:37.543Z,47.30
2017-04-29T16:32:04.365Z,47.10
2017-04-29T16:34:31.186Z,47.60
2017-04-29T16:36:57.992Z,47.10
2017-04-29T16:39:24.838Z,47.80
2017-04-29T16:41:51.606Z,48.00
2017-04-29T16:44:18.423Z,46.90
2017-04-29T16:46:45.207Z,48.10
2017-04-29T16:49:12.044Z,49.40
2017-04-29T16:51:38.854Z,49.30
2017-04-29T16:54:06.375Z,48.00
2017-04-29T16:56:33.191Z,50.00
2017-04-29T16:58:59.976Z,49.20
2017-04-29T17:01:26.819Z,50.30
2017-04-29T17:03:53.686Z,49.50
2017-04-29T17:06:20.462Z,49.30
2017-04-29T17:08:47.291Z,49.30
2017-04-29T17:11:14.091Z,49.90
2017-04-29T17:13:41.614Z,49.60
2017-04-29T17:16:08.433Z,49.70
2017-04-29T17:18:35.251Z,50.60
2017-04-29T17:21:02.076Z,50.90
2017-04-29T17:23:28.909Z,51.30
2017-04-29T17:25:55.806Z,51.30
2017-04-29T17:28:22.588Z,51.50
2017-04-29T17:30:49.366Z,51.60
2017-04-29T17:33:16.195Z,52.00
2017-04-29T17:35:42.979Z,52.40
2017-04-29T17:38:10.509Z,52.30
2017-04-29T17:40:37.353Z,51.80
2017-04-29T17:43:04.876Z,52.20
2017-04-29T17:45:31.662Z,53.10
2017-04-29T17:47:58.540Z,51.80
2017-04-29T17:50:25.422Z,51.20
2017-04-29T17:52:52.219Z,51.40
2017-04-29T17:55:19.069Z,53.40
2017-04-29T17:57:45.855Z,51.80
2017-04-29T18:00:12.675Z,52.20
2017-04-29T18:02:39.455Z,52.70
2017-04-29T18:05:06.299Z,52.80
2017-04-29T18:07:33.116Z,53.90
2017-04-29T18:09:59.912Z,54.70
2017-04-29T18:12:26.771Z,56.10
2017-04-29T18:14:53.566Z,56.20
2017-04-29T18:17:20.391Z,57.10
2017-04-29T18:19:47.943Z,57.80
2017-04-29T18:22:15.502Z,57.50
2017-04-29T18:24:42.281Z,58.50
2017-04-29T18:27:09.111Z,59.00
2017-04-29T18:29:35.890Z,59.20
2017-04-29T18:32:02.677Z,59.30
2017-04-29T18:34:30.330Z,61.40
2017-04-29T18:36:57.876Z,61.40
2017-04-29T18:39:25.459Z,62.50
2017-04-29T18:41:52.274Z,62.10
2017-04-29T18:44:19.051Z,63.30
2017-04-29T18:46:45.870Z,64.30
2017-04-29T18:49:12.642Z,64.60
2017-04-29T18:51:40.246Z,65.40
2017-04-29T18:54:07.032Z,65.50
2017-04-29T18:56:33.824Z,65.10
2017-04-29T18:59:00.651Z,65.40
2017-04-29T19:01:30.441Z,66.10
2017-04-29T19:03:57.248Z,65.90
2017-04-29T19:06:24.112Z,65.40
2017-04-29T19:08:51.714Z,64.90
2017-04-29T19:11:18.495Z,66.80
2017-04-29T19:13:46.024Z,67.90
2017-04-29T19:16:12.842Z,68.00
2017-04-29T19:18:39.623Z,68.40
2017-04-29T19:21:06.433Z,67.90
2017-04-29T19:23:33.256Z,68.80
2017-04-29T19:26:00.091Z,67.40
2017-04-29T19:28:27.024Z,67.00
2017-04-29T19:30:53.852Z,66.30
2017-04-29T19:33:20.639Z,65.80
2017-04-29T19:35:47.459Z,65.70
2017-04-29T19:38:14.295Z,66.30
2017-04-29T19:40:41.074Z,66.40
2017-04-29T19:43:14.775Z,67.30
2017-04-29T19:45:41.556Z,68.20
2017-04-29T19:48:09.127Z,68.90
2017-04-29T19:50:35.954Z,69.60
2017-04-29T19:53:02.759Z,70.00
2017-04-29T19:55:30.344Z,70.20
2017-04-29T19:57:57.183Z,70.70
2017-04-29T20:00:24.940Z,70.00
2017-04-29T20:02:51.772Z,69.90
2017-04-29T20:05:18.595Z,70.40
2017-04-29T20:07:45.367Z,70.80
2017-04-29T20:10:12.910Z,70.80
2017-04-29T20:12:40.464Z,71.20
2017-04-29T20:15:08.027Z,70.50
2017-04-29T20:17:34.864Z,70.70
2017-04-29T20:20:01.694Z,71.40
2017-04-29T20:22:28.507Z,71.50
2017-04-29T20:24:55.415Z,71.30
2017-04-29T20:27:22.944Z,71.90
2017-04-29T20:29:49.758Z,71.80
2017-04-29T20:32:16.550Z,71.70
2017-04-29T20:34:43.367Z,71.30
2017-04-29T20:37:10.139Z,72.30
2017-04-29T20:39:36.980Z,72.10
2017-04-29T20:42:03.804Z,73.10
2017-04-29T20:44:30.590Z,73.10
2017-04-29T20:46:57.420Z,73.00
2017-04-29T20:49:24.211Z,73.10
2017-04-29T20:51:51.083Z,73.70
2017-04-29T20:54:17.868Z,73.20
2017-04-29T20:56:45.459Z,73.10
2017-04-29T20:59:12.235Z,73.00
2017-04-29T21:01:39.755Z,72.90
2017-04-29T21:04:06.589Z,73.60
2017-04-29T21:06:33.367Z,74.50
2017-04-29T21:09:00.147Z,74.60
2017-04-29T21:11:27.086Z,74.70
2017-04-29T21:13:54.082Z,75.20
2017-04-29T21:16:20.863Z,76.30
2017-04-29T21:18:48.386Z,76.50
2017-04-29T21:21:15.223Z,76.90
2017-04-29T21:23:42.760Z,75.40
2017-04-29T21:26:09.537Z,77.70
2017-04-29T21:28:36.372Z,75.80
2017-04-29T21:31:03.155Z,77.40
2017-04-29T21:33:30.734Z,76.40
2017-04-29T21:35:57.583Z,78.20
2017-04-29T21:38:24.391Z,78.40
2017-04-29T21:40:51.171Z,78.20
2017-04-29T21:43:18.747Z,77.80
2017-04-29T21:45:45.536Z,78.60
2017-04-29T21:48:12.354Z,78.20
2017-04-29T21:50:39.425Z,78.60
2017-04-29T21:53:07.018Z,78.60
2017-04-29T21:55:33.802Z,78.90
2017-04-29T21:58:00.679Z,79.60
2017-04-29T22:00:27.491Z,78.00
2017-04-29T22:02:54.451Z,78.60
2017-04-29T22:05:21.228Z,79.40
2017-04-29T22:07:48.046Z,80.20
2017-04-29T22:10:14.858Z,79.90
2017-04-29T22:12:42.428Z,79.10
2017-04-29T22:15:09.248Z,79.60
2017-04-29T22:17:36.780Z,79.80
2017-04-29T22:20:04.295Z,78.30
2017-04-29T22:22:31.116Z,78.60
2017-04-29T22:24:57.950Z,80.50
2017-04-29T22:27:24.797Z,79.20
2017-04-29T22:29:51.614Z,79.40
2017-04-29T22:32:18.458Z,79.80
2017-04-29T22:34:45.237Z,81.30
2017-04-29T22:37:12.015Z,81.00
2017-04-29T22:39:39.579Z,81.30
2017-04-29T22:42:06.359Z,79.60
2017-04-29T22:44:33.171Z,80.70
2017-04-29T22:46:59.956Z,80.70
2017-04-29T22:49:27.518Z,79.50
2017-04-29T22:51:54.343Z,79.20
2017-04-29T22:54:21.150Z,80.20
2017-04-29T22:56:48.675Z,80.60
2017-04-29T22:59:15.487Z,80.00
2017-04-29T23:01:42.298Z,79.30
2017-04-29T23:04:09.144Z,80.60
2017-04-29T23:06:35.964Z,81.70
2017-04-29T23:09:02.760Z,82.80
2017-04-29T23:11:29.543Z,82.60
2017-04-29T23:13:56.399Z,80.90
2017-04-29T23:16:23.243Z,81.00
2017-04-29T23:18:50.039Z,82.60
2017-04-29T23:21:17.685Z,83.20
2017-04-29T23:23:45.246Z,83.40
2017-04-29T23:26:12.767Z,83.50
2017-04-29T23:28:39.579Z,83.60
2017-04-29T23:31:06.351Z,84.10
2017-04-29T23:33:33.178Z,84.20
2017-04-29T23:36:00.047Z,83.40
2017-04-29T23:38:26.863Z,83.60
2017-04-29T23:40:53.639Z,83.90
2017-04-29T23:43:20.463Z,84.00
2017-04-29T23:45:47.242Z,84.40
2017-04-29T23:48:14.063Z,82.70
2017-04-29T23:50:40.847Z,82.00
2017-04-29T23:53:08.475Z,81.80
2017-04-29T23:55:35.256Z,83.20
2017-04-29T23:58:02.027Z,82.80
